New England — V7HF3 — position and weather

sailwx.info

Track history (hours):
 
Tides and Currents Weather Stations Pressure Air Temp Water Temp Dewpoint Dewpoint Depression Visibility Wind Speed Wind Dir Waves Ship Positions

New England

Last reported at 2014-Sep-26 10:33 UTC. Time now 2014-Sep-30 21:54 UTC.
Position N 43°37' W 069°21'.

Length 182 m; draft 10.4 m.

Type: Tanker. MMSI: 538002220.

Date/timePositionNaut miles runAvg speedWind from/ knotsBaromVisibWave heightAir tempDewpointWater temp
2014-Sep-26 10:33N 43°37' W 069°21'2713.4
2014-Sep-26 08:33N 43°37' W 069°58'1211.9
2014-Sep-26 07:33N 43°40' W 070°14'2 0.2
2014-Sep-26 00:12N 43°38' W 070°16'0 0.0
2014-Sep-25 18:05N 43°38' W 070°16'0 0.0
2014-Sep-25 08:28N 43°39' W 070°16'1 0.9
2014-Sep-25 07:33N 43°38' W 070°17'0 0.0
2014-Sep-25 06:27N 43°38' W 070°17'0 0.0
2014-Sep-25 05:32N 43°38' W 070°17'0 0.0
2014-Sep-25 04:26N 43°38' W 070°17'0 0.0
2014-Sep-25 03:31N 43°38' W 070°17'0 0.0
2014-Sep-25 02:31N 43°38' W 070°17'0 0.0
2014-Sep-24 22:29N 43°38' W 070°17'0 0.0
2014-Sep-24 20:22N 43°38' W 070°17'3 1.9
2014-Sep-24 18:33N 43°38' W 070°12'1111.4
2014-Sep-24 17:33N 43°37' W 069°56'  
2014-Sep-22 05:33N 42°32' W 070°34'1413.5
2014-Sep-22 04:31N 42°23' W 070°48'7 0.5
2014-Sep-21 13:30N 42°20' W 070°57'1111.3
2014-Sep-21 12:33N 42°26' W 070°45'1513.9
2014-Sep-21 11:30N 42°36' W 070°30'1313.7
2014-Sep-21 10:33N 42°45' W 070°18'5213.1
2014-Sep-21 06:33N 43°37' W 070°12'3 0.3
2014-Sep-20 20:33N 43°38' W 070°16'0 0.4
2014-Sep-20 19:30N 43°38' W 070°17'0 0.0
2014-Sep-20 18:30N 43°38' W 070°17'0 0.0
2014-Sep-20 17:23N 43°38' W 070°17'0 0.0
2014-Sep-20 16:29N 43°38' W 070°17'0 0.0
2014-Sep-20 15:22N 43°38' W 070°17'0 0.0
2014-Sep-20 14:28N 43°38' W 070°17'0 0.0
2014-Sep-20 12:18N 43°38' W 070°17'0 0.0
2014-Sep-20 11:26N 43°38' W 070°17'0 0.0
2014-Sep-20 10:23N 43°38' W 070°17'0 0.0
2014-Sep-20 09:32N 43°38' W 070°17'0 0.0
2014-Sep-20 08:10N 43°38' W 070°17'0 0.0
2014-Sep-20 07:25N 43°38' W 070°17'0 0.0
2014-Sep-20 06:30N 43°38' W 070°17'0 0.0
2014-Sep-20 04:32N 43°38' W 070°17'3 3.1
2014-Sep-20 03:33N 43°38' W 070°13'1111.3
2014-Sep-20 02:33N 43°37' W 069°57'  
2014-Sep-17 15:06N 42°31' W 070°37'813.7
2014-Sep-17 14:32N 42°27' W 070°46'  
Track history (hours):
 
Tides and Currents Weather Stations Pressure Air Temp Water Temp Dewpoint Dewpoint Depression Visibility Wind Speed Wind Dir Waves Ship Positions

New England

Last reported at 2014-Sep-26 10:33 UTC. Time now 2014-Sep-30 21:54 UTC.
Position N 43°37' W 069°21'.

Length 182 m; draft 10.4 m.

Type: Tanker. MMSI: 538002220.

Date/timePositionNaut miles runAvg speedWind from/ knotsBaromVisibWave heightAir tempDewpointWater temp
2014-Sep-26 10:33N 43°37' W 069°21'2713.4
2014-Sep-26 08:33N 43°37' W 069°58'1211.9
2014-Sep-26 07:33N 43°40' W 070°14'2 0.2
2014-Sep-26 00:12N 43°38' W 070°16'0 0.0
2014-Sep-25 18:05N 43°38' W 070°16'0 0.0
2014-Sep-25 08:28N 43°39' W 070°16'1 0.9
2014-Sep-25 07:33N 43°38' W 070°17'0 0.0
2014-Sep-25 06:27N 43°38' W 070°17'0 0.0
2014-Sep-25 05:32N 43°38' W 070°17'0 0.0
2014-Sep-25 04:26N 43°38' W 070°17'0 0.0
2014-Sep-25 03:31N 43°38' W 070°17'0 0.0
2014-Sep-25 02:31N 43°38' W 070°17'0 0.0
2014-Sep-24 22:29N 43°38' W 070°17'0 0.0
2014-Sep-24 20:22N 43°38' W 070°17'3 1.9
2014-Sep-24 18:33N 43°38' W 070°12'1111.4
2014-Sep-24 17:33N 43°37' W 069°56'  
2014-Sep-22 05:33N 42°32' W 070°34'1413.5
2014-Sep-22 04:31N 42°23' W 070°48'7 0.5
2014-Sep-21 13:30N 42°20' W 070°57'1111.3
2014-Sep-21 12:33N 42°26' W 070°45'1513.9
2014-Sep-21 11:30N 42°36' W 070°30'1313.7
2014-Sep-21 10:33N 42°45' W 070°18'5213.1
2014-Sep-21 06:33N 43°37' W 070°12'3 0.3
2014-Sep-20 20:33N 43°38' W 070°16'0 0.4
2014-Sep-20 19:30N 43°38' W 070°17'0 0.0
2014-Sep-20 18:30N 43°38' W 070°17'0 0.0
2014-Sep-20 17:23N 43°38' W 070°17'0 0.0
2014-Sep-20 16:29N 43°38' W 070°17'0 0.0
2014-Sep-20 15:22N 43°38' W 070°17'0 0.0
2014-Sep-20 14:28N 43°38' W 070°17'0 0.0
2014-Sep-20 12:18N 43°38' W 070°17'0 0.0
2014-Sep-20 11:26N 43°38' W 070°17'0 0.0
2014-Sep-20 10:23N 43°38' W 070°17'0 0.0
2014-Sep-20 09:32N 43°38' W 070°17'0 0.0
2014-Sep-20 08:10N 43°38' W 070°17'0 0.0
2014-Sep-20 07:25N 43°38' W 070°17'0 0.0
2014-Sep-20 06:30N 43°38' W 070°17'0 0.0
2014-Sep-20 04:32N 43°38' W 070°17'3 3.1
2014-Sep-20 03:33N 43°38' W 070°13'1111.3
2014-Sep-20 02:33N 43°37' W 069°57'  
2014-Sep-17 15:06N 42°31' W 070°37'813.7
2014-Sep-17 14:32N 42°27' W 070°46'  

Dump ship's entire track history